createdAt,value
2019-04-26T00:02:12.276Z,71.30
2019-04-26T00:04:16.655Z,71.20
2019-04-26T00:06:20.851Z,71.10
2019-04-26T00:08:24.688Z,71.30
2019-04-26T00:10:46.891Z,71.40
2019-04-26T00:12:58.746Z,71.30
2019-04-26T00:15:16.391Z,71.40
2019-04-26T00:17:22.411Z,71.50
2019-04-26T00:19:26.799Z,71.20
2019-04-26T00:21:31.937Z,71.20
2019-04-26T00:23:36.156Z,71.00
2019-04-26T00:25:40.299Z,72.00
2019-04-26T00:27:44.260Z,71.40
2019-04-26T00:29:48.376Z,71.50
2019-04-26T00:31:52.873Z,71.50
2019-04-26T00:33:56.896Z,71.60
2019-04-26T00:36:03.463Z,71.60
2019-04-26T00:38:07.517Z,71.70
2019-04-26T00:40:12.803Z,71.60
2019-04-26T00:42:18.518Z,71.40
2019-04-26T00:44:22.905Z,71.50
2019-04-26T00:46:29.240Z,71.20
2019-04-26T00:48:33.864Z,71.30
2019-04-26T00:50:37.971Z,71.60
2019-04-26T00:52:43.297Z,71.60
2019-04-26T00:54:47.827Z,71.80
2019-04-26T00:56:55.822Z,71.70
2019-04-26T00:59:00.143Z,71.80
2019-04-26T01:03:45.806Z,71.40
2019-04-26T01:05:59.587Z,71.70
2019-04-26T01:07:56.981Z,71.50
2019-04-26T01:10:00.816Z,71.70
2019-04-26T01:12:04.954Z,71.80
2019-04-26T01:14:09.123Z,71.80
2019-04-26T01:16:13.231Z,72.00
2019-04-26T01:18:18.130Z,72.30
2019-04-26T01:20:24.831Z,72.20
2019-04-26T01:22:31.647Z,72.40
2019-04-26T01:24:36.211Z,72.10
2019-04-26T01:26:40.846Z,71.80
2019-04-26T01:29:02.787Z,71.90
2019-04-26T01:31:08.530Z,72.00
2019-04-26T01:33:13.212Z,72.50
2019-04-26T01:35:17.888Z,72.80
2019-04-26T01:37:23.005Z,72.80
2019-04-26T01:39:27.890Z,73.10
2019-04-26T01:41:36.467Z,72.90
2019-04-26T01:43:59.235Z,73.10
2019-04-26T01:46:11.807Z,73.00
2019-04-26T01:48:36.244Z,72.90
2019-04-26T01:50:40.596Z,73.10
2019-04-26T01:52:45.756Z,73.10
2019-04-26T01:54:49.951Z,73.10
2019-04-26T01:56:56.853Z,73.10
2019-04-26T01:59:01.063Z,73.20
2019-04-26T02:01:23.660Z,73.20
2019-04-26T02:03:29.839Z,73.70
2019-04-26T02:05:33.727Z,73.70
2019-04-26T02:07:43.898Z,73.80
2019-04-26T02:09:47.791Z,73.90
2019-04-26T02:11:51.913Z,73.90
2019-04-26T02:13:56.228Z,73.90
2019-04-26T02:16:00.236Z,73.80
2019-04-26T02:18:05.164Z,74.20
2019-04-26T02:20:09.902Z,74.10
2019-04-26T02:22:15.536Z,74.10
2019-04-26T02:24:21.182Z,74.30
2019-04-26T02:26:36.147Z,74.40
2019-04-26T02:28:40.055Z,74.30
2019-04-26T02:30:44.062Z,74.70
2019-04-26T02:32:49.606Z,75.10
2019-04-26T02:34:54.179Z,75.10
2019-04-26T02:37:01.371Z,75.10
2019-04-26T02:39:08.385Z,75.30
2019-04-26T02:41:12.733Z,75.50
2019-04-26T02:43:19.267Z,75.30
2019-04-26T02:45:30.013Z,75.10
2019-04-26T02:47:40.902Z,75.00
2019-04-26T02:49:49.316Z,74.60
2019-04-26T02:51:56.211Z,74.80
2019-04-26T02:54:22.807Z,75.10
2019-04-26T02:56:30.290Z,75.00
2019-04-26T02:58:43.846Z,74.80
2019-04-26T03:00:48.496Z,74.70
2019-04-26T03:02:55.457Z,75.00
2019-04-26T03:05:02.304Z,74.80
2019-04-26T03:07:09.185Z,74.70
2019-04-26T03:09:16.071Z,74.90
2019-04-26T03:11:23.048Z,74.80
2019-04-26T03:13:32.739Z,75.70
2019-04-26T03:15:44.200Z,75.00
2019-04-26T03:17:52.630Z,75.00
2019-04-26T03:20:10.544Z,75.20
2019-04-26T03:22:19.949Z,75.20
2019-04-26T03:24:31.040Z,75.10
2019-04-26T03:26:39.514Z,75.20
2019-04-26T03:28:55.300Z,75.30
2019-04-26T03:31:02.194Z,75.60
2019-04-26T03:33:26.847Z,75.90
2019-04-26T03:36:07.461Z,76.00
2019-04-26T03:38:34.525Z,76.00
2019-04-26T03:40:58.172Z,75.90
2019-04-26T03:43:07.708Z,75.90
2019-04-26T03:45:17.344Z,76.20
2019-04-26T03:47:26.990Z,76.10
2019-04-26T03:49:49.732Z,76.80
2019-04-26T03:51:56.819Z,75.70
2019-04-26T03:54:09.444Z,75.90
2019-04-26T03:56:20.499Z,76.20
2019-04-26T03:58:57.374Z,76.30
2019-04-26T04:01:17.464Z,76.00
2019-04-26T04:03:43.501Z,76.90
2019-04-26T04:05:50.876Z,75.80
2019-04-26T04:07:56.968Z,75.60
2019-04-26T04:10:06.518Z,75.60
2019-04-26T04:12:25.442Z,76.00
2019-04-26T04:14:42.704Z,76.10
2019-04-26T04:16:57.123Z,76.30
2019-04-26T04:19:26.257Z,75.90
2019-04-26T04:21:52.663Z,76.00
2019-04-26T04:24:05.146Z,75.80
2019-04-26T04:26:10.825Z,75.80
2019-04-26T04:28:32.703Z,76.20
2019-04-26T04:30:51.657Z,76.00
2019-04-26T04:33:01.398Z,75.80
2019-04-26T04:35:13.294Z,76.20
2019-04-26T04:37:18.351Z,76.30
2019-04-26T04:39:25.176Z,76.50
2019-04-26T04:41:53.241Z,76.50
2019-04-26T04:44:28.833Z,76.70
2019-04-26T04:47:24.791Z,76.40
2019-04-26T04:49:29.596Z,76.70
2019-04-26T04:51:36.424Z,76.90
2019-04-26T04:54:01.136Z,77.00
2019-04-26T04:56:24.211Z,77.20
2019-04-26T04:58:34.555Z,77.40
2019-04-26T05:01:15.933Z,77.30
2019-04-26T05:03:39.037Z,77.60
2019-04-26T05:06:06.940Z,76.70
2019-04-26T05:08:22.674Z,76.60
2019-04-26T05:10:38.457Z,76.70
2019-04-26T05:12:57.247Z,76.60
2019-04-26T05:15:20.519Z,76.40
2019-04-26T05:17:36.239Z,76.50
2019-04-26T05:19:58.268Z,76.50
2019-04-26T05:22:05.043Z,76.40
2019-04-26T05:24:15.363Z,76.20
2019-04-26T05:26:41.070Z,76.40
2019-04-26T05:28:58.513Z,76.30
2019-04-26T05:31:32.336Z,76.10
2019-04-26T05:33:46.160Z,76.30
2019-04-26T05:36:07.476Z,75.80
2019-04-26T05:38:37.080Z,75.60
2019-04-26T05:41:08.530Z,75.60
2019-04-26T05:43:19.454Z,75.30
2019-04-26T05:45:42.519Z,75.00
2019-04-26T05:48:12.266Z,75.00
2019-04-26T05:51:02.187Z,74.80
2019-04-26T05:53:57.696Z,74.90
2019-04-26T05:56:34.731Z,74.90
2019-04-26T05:58:54.552Z,74.30
2019-04-26T06:01:23.906Z,74.10
2019-04-26T06:04:06.643Z,74.10
2019-04-26T06:06:27.243Z,74.10
2019-04-26T06:08:38.313Z,73.90
2019-04-26T06:10:57.872Z,73.40
2019-04-26T06:13:21.438Z,73.90
2019-04-26T06:15:38.558Z,73.30
2019-04-26T06:17:55.758Z,72.40
2019-04-26T06:20:23.598Z,72.00
2019-04-26T06:22:57.501Z,71.80
2019-04-26T06:25:09.453Z,71.60
2019-04-26T06:27:17.824Z,71.00
2019-04-26T06:29:44.195Z,70.80
2019-04-26T06:32:00.487Z,70.90
2019-04-26T06:34:10.555Z,70.40
2019-04-26T06:36:18.644Z,71.20
2019-04-26T06:39:06.282Z,70.80
2019-04-26T06:41:25.129Z,70.20
2019-04-26T06:43:33.555Z,69.50
2019-04-26T06:46:00.687Z,69.90
2019-04-26T06:48:20.613Z,69.60
2019-04-26T06:50:44.040Z,69.10
2019-04-26T06:52:53.555Z,69.60
2019-04-26T06:55:10.675Z,69.30
2019-04-26T06:58:01.124Z,68.60
2019-04-26T07:00:18.607Z,68.60
2019-04-26T07:02:40.558Z,68.00
2019-04-26T07:05:15.025Z,67.40
2019-04-26T07:07:32.684Z,67.70
2019-04-26T07:09:51.739Z,67.50
2019-04-26T07:12:29.231Z,66.50
2019-04-26T07:14:57.415Z,65.70
2019-04-26T07:17:09.947Z,65.40
2019-04-26T07:19:51.404Z,65.90
2019-04-26T07:22:35.192Z,66.60
2019-04-26T07:25:03.557Z,66.00
2019-04-26T07:27:19.389Z,65.60
2019-04-26T07:29:30.078Z,64.80
2019-04-26T07:31:52.188Z,65.00
2019-04-26T07:34:00.807Z,64.30
2019-04-26T07:36:29.770Z,63.80
2019-04-26T07:38:52.054Z,63.70
2019-04-26T07:41:21.561Z,62.70
2019-04-26T07:43:55.771Z,62.20
2019-04-26T07:46:08.485Z,61.20
2019-04-26T07:48:27.032Z,61.00
2019-04-26T07:50:52.900Z,61.30
2019-04-26T07:53:28.932Z,60.90
2019-04-26T07:56:07.180Z,60.20
2019-04-26T07:58:31.974Z,60.20
2019-04-26T08:00:45.081Z,60.00
2019-04-26T08:02:56.021Z,59.40
2019-04-26T08:05:18.675Z,58.60
2019-04-26T08:07:25.471Z,58.70
2019-04-26T08:09:31.159Z,58.50
2019-04-26T08:11:43.841Z,57.70
2019-04-26T08:14:12.486Z,57.60
2019-04-26T08:16:25.359Z,56.40
2019-04-26T08:18:42.352Z,56.10
2019-04-26T08:20:49.303Z,55.40
2019-04-26T08:23:02.717Z,56.30
2019-04-26T08:25:08.191Z,57.10
2019-04-26T08:27:22.868Z,57.80
2019-04-26T08:29:23.250Z,57.80
2019-04-26T08:31:31.327Z,56.20
2019-04-26T08:33:40.430Z,55.40
2019-04-26T08:35:49.037Z,54.30
2019-04-26T08:37:55.879Z,54.60
2019-04-26T08:40:00.190Z,55.40
2019-04-26T08:42:05.243Z,54.40
2019-04-26T08:44:14.425Z,53.90
2019-04-26T08:46:26.270Z,54.20
2019-04-26T08:48:49.307Z,55.00
2019-04-26T08:50:56.807Z,55.20
2019-04-26T08:53:05.115Z,54.30
2019-04-26T08:55:10.097Z,55.00
2019-04-26T08:57:15.311Z,54.20
2019-04-26T08:59:28.147Z,53.10
2019-04-26T09:01:51.133Z,53.20
2019-04-26T09:04:11.351Z,53.20
2019-04-26T09:06:21.572Z,53.60
2019-04-26T09:08:28.503Z,52.80
2019-04-26T09:10:35.521Z,51.90
2019-04-26T09:12:42.907Z,52.60
2019-04-26T09:14:52.791Z,53.10
2019-04-26T09:16:56.653Z,52.70
2019-04-26T09:19:00.475Z,51.90
2019-04-26T09:21:04.539Z,52.40
2019-04-26T09:23:10.378Z,52.20
2019-04-26T09:25:24.486Z,52.00
2019-04-26T09:27:30.181Z,51.30
2019-04-26T09:29:35.612Z,51.60
2019-04-26T09:31:50.423Z,50.80
2019-04-26T09:33:54.901Z,50.00
2019-04-26T09:35:59.704Z,50.80
2019-04-26T09:38:03.838Z,50.50
2019-04-26T09:40:10.357Z,50.70
2019-04-26T09:42:24.670Z,49.30
2019-04-26T09:44:41.338Z,48.30
2019-04-26T09:46:48.481Z,48.80
2019-04-26T09:49:06.950Z,49.10
2019-04-26T09:51:11.751Z,49.00
2019-04-26T09:53:16.437Z,48.20
2019-04-26T09:55:20.600Z,47.90
2019-04-26T09:57:24.702Z,48.10
2019-04-26T09:59:30.714Z,48.40
2019-04-26T10:01:34.295Z,47.90
2019-04-26T10:03:38.143Z,47.60
2019-04-26T10:05:42.059Z,46.80
2019-04-26T10:07:45.924Z,48.20
2019-04-26T10:09:51.640Z,48.00
2019-04-26T10:11:57.024Z,47.90
2019-04-26T10:14:02.581Z,47.20
2019-04-26T10:16:14.754Z,48.10
2019-04-26T10:18:24.218Z,46.80
2019-04-26T10:20:26.254Z,46.20
2019-04-26T10:22:32.717Z,46.70
2019-04-26T10:24:36.729Z,46.20
2019-04-26T10:26:40.566Z,45.40
2019-04-26T10:28:46.782Z,45.70
2019-04-26T10:30:51.674Z,45.30
2019-04-26T10:32:58.349Z,44.30
2019-04-26T10:35:01.168Z,44.10
2019-04-26T10:37:08.024Z,43.90
2019-04-26T10:39:12.996Z,43.60
2019-04-26T10:41:19.774Z,43.00
2019-04-26T10:43:29.265Z,44.30
2019-04-26T10:45:31.033Z,44.40
2019-04-26T10:47:38.490Z,43.50
2019-04-26T10:49:45.644Z,43.80
2019-04-26T10:51:49.749Z,43.10
2019-04-26T10:54:01.771Z,44.00
2019-04-26T10:56:24.295Z,44.20
2019-04-26T10:58:32.057Z,41.70
2019-04-26T11:00:36.310Z,41.10
2019-04-26T11:02:40.190Z,42.10
2019-04-26T11:04:44.604Z,40.50
2019-04-26T11:06:48.692Z,40.20
2019-04-26T11:08:52.739Z,39.00
2019-04-26T11:10:56.912Z,39.60
2019-04-26T11:13:00.826Z,39.90
2019-04-26T11:15:06.668Z,37.80
2019-04-26T11:17:16.057Z,37.70
2019-04-26T11:19:19.320Z,38.20
2019-04-26T11:21:23.190Z,37.80
2019-04-26T11:23:27.170Z,38.30
2019-04-26T11:25:31.316Z,38.50
2019-04-26T11:27:40.193Z,38.90
2019-04-26T11:29:53.236Z,38.10
2019-04-26T11:31:47.946Z,37.40
2019-04-26T11:33:51.953Z,36.40
2019-04-26T11:35:55.837Z,36.80
2019-04-26T11:37:59.818Z,37.00
2019-04-26T11:40:05.195Z,38.10
2019-04-26T11:42:11.813Z,38.70
2019-04-26T11:44:14.644Z,39.40
2019-04-26T11:46:21.826Z,39.50
2019-04-26T11:48:25.444Z,39.50
2019-04-26T11:50:29.700Z,39.40
2019-04-26T11:52:35.936Z,39.50
2019-04-26T11:54:39.203Z,38.80
2019-04-26T11:56:43.208Z,39.20
2019-04-26T11:58:47.214Z,38.80
2019-04-26T12:00:52.858Z,38.10
2019-04-26T12:02:58.225Z,37.20
2019-04-26T12:05:22.021Z,37.30
2019-04-26T12:07:29.699Z,36.50
2019-04-26T12:09:35.515Z,36.30
2019-04-26T12:11:48.918Z,36.20
2019-04-26T12:13:44.944Z,35.20
2019-04-26T12:15:48.791Z,35.30
2019-04-26T12:17:58.664Z,35.90
2019-04-26T12:19:59.681Z,35.10
2019-04-26T12:22:04.358Z,34.50
2019-04-26T12:24:11.118Z,34.70
2019-04-26T12:26:17.323Z,34.40
2019-04-26T12:28:21.559Z,34.40
2019-04-26T12:30:26.877Z,34.10
2019-04-26T12:32:30.988Z,33.90
2019-04-26T12:34:34.875Z,34.30
2019-04-26T12:36:38.735Z,34.30
2019-04-26T12:38:42.655Z,34.40
2019-04-26T12:40:47.586Z,34.30
2019-04-26T12:42:51.487Z,34.80
2019-04-26T12:45:12.239Z,34.60
2019-04-26T12:47:34.633Z,34.50
2019-04-26T12:49:36.919Z,34.90
2019-04-26T12:51:42.846Z,35.30
2019-04-26T12:53:46.333Z,35.60
2019-04-26T12:55:53.270Z,34.90
2019-04-26T12:57:57.288Z,35.00
2019-04-26T13:00:01.751Z,34.50
2019-04-26T13:02:06.291Z,33.50
2019-04-26T13:04:10.261Z,33.60
2019-04-26T13:06:14.160Z,33.40
2019-04-26T13:08:20.497Z,32.90
2019-04-26T13:10:35.456Z,32.90
2019-04-26T13:12:54.376Z,32.50
2019-04-26T13:15:02.747Z,32.00
2019-04-26T13:17:09.656Z,32.00
2019-04-26T13:19:16.019Z,30.90
2019-04-26T13:21:19.232Z,30.90
2019-04-26T13:23:25.440Z,31.90
2019-04-26T13:25:39.946Z,32.90
2019-04-26T13:27:34.179Z,33.00
2019-04-26T13:29:38.057Z,31.80
2019-04-26T13:31:41.947Z,31.50
2019-04-26T13:33:45.945Z,31.30
2019-04-26T13:36:02.206Z,30.60
2019-04-26T13:37:55.696Z,30.70
2019-04-26T13:40:00.112Z,30.60
2019-04-26T13:42:09.185Z,30.60
2019-04-26T13:44:10.780Z,30.00
2019-04-26T13:46:22.370Z,30.00
2019-04-26T13:48:27.990Z,30.00
2019-04-26T13:51:05.850Z,29.20
2019-04-26T13:53:09.967Z,29.40
2019-04-26T13:55:13.943Z,29.40
2019-04-26T13:57:20.937Z,28.30
2019-04-26T13:59:28.206Z,28.10
2019-04-26T14:01:30.600Z,28.20
2019-04-26T14:03:34.510Z,27.70
2019-04-26T14:05:39.871Z,27.00
2019-04-26T14:07:44.155Z,26.60
2019-04-26T14:09:48.081Z,26.60
2019-04-26T14:11:53.525Z,26.00
2019-04-26T14:14:00.012Z,26.00
2019-04-26T14:16:06.448Z,25.60
2019-04-26T14:18:10.505Z,25.80
2019-04-26T14:20:14.712Z,25.70
2019-04-26T14:22:20.267Z,26.00
2019-04-26T14:24:40.573Z,26.30
2019-04-26T14:26:47.535Z,26.80
2019-04-26T14:28:54.268Z,26.80
2019-04-26T14:30:57.185Z,27.00
2019-04-26T14:33:01.194Z,27.70
2019-04-26T14:35:06.227Z,27.70
2019-04-26T14:37:15.421Z,27.50
2019-04-26T14:39:19.644Z,27.10
2019-04-26T14:41:23.564Z,27.20
2019-04-26T14:43:40.111Z,26.50
2019-04-26T14:45:36.455Z,27.00
2019-04-26T14:47:47.134Z,28.50
2019-04-26T14:49:44.351Z,26.40
2019-04-26T14:51:51.270Z,27.00
2019-04-26T14:53:56.631Z,26.70
2019-04-26T14:56:01.035Z,27.70
2019-04-26T14:58:05.054Z,27.60
2019-04-26T15:00:10.164Z,28.30
2019-04-26T15:02:15.803Z,28.30
2019-04-26T15:04:33.564Z,28.30
2019-04-26T15:06:39.002Z,29.10
2019-04-26T15:08:48.656Z,28.90
2019-04-26T15:11:01.050Z,29.60
2019-04-26T15:13:15.028Z,29.90
2019-04-26T15:15:10.188Z,30.60
2019-04-26T15:17:16.363Z,30.60
2019-04-26T15:19:19.746Z,29.60
2019-04-26T15:21:27.256Z,29.40
2019-04-26T15:23:29.088Z,28.90
2019-04-26T15:25:33.616Z,28.30
2019-04-26T15:27:37.638Z,27.70
2019-04-26T15:29:42.313Z,28.30
2019-04-26T15:31:46.378Z,28.30
2019-04-26T15:33:52.386Z,29.40
2019-04-26T15:35:56.414Z,29.30
2019-04-26T15:38:01.483Z,29.50
2019-04-26T15:40:13.800Z,29.70
2019-04-26T15:42:29.507Z,29.90
2019-04-26T15:44:35.899Z,29.10
2019-04-26T15:46:56.589Z,29.50
2019-04-26T15:49:05.411Z,30.80
2019-04-26T15:51:09.725Z,31.80
2019-04-26T15:53:14.781Z,32.60
2019-04-26T15:55:18.969Z,33.30
2019-04-26T15:57:24.399Z,33.40
2019-04-26T15:59:28.415Z,34.20
2019-04-26T16:01:32.606Z,34.10
2019-04-26T16:03:36.839Z,33.90
2019-04-26T16:05:43.343Z,34.30
2019-04-26T16:07:47.339Z,34.80
2019-04-26T16:09:55.969Z,35.10
2019-04-26T16:11:56.764Z,35.80
2019-04-26T16:14:02.104Z,35.10
2019-04-26T16:16:06.319Z,35.40
2019-04-26T16:18:10.564Z,35.50
2019-04-26T16:20:15.950Z,35.60
2019-04-26T16:22:19.967Z,35.60
2019-04-26T16:24:24.148Z,36.60
2019-04-26T16:26:29.322Z,37.00
2019-04-26T16:28:38.461Z,37.80
2019-04-26T16:30:42.868Z,38.20
2019-04-26T16:32:52.660Z,38.10
2019-04-26T16:34:57.845Z,37.90
2019-04-26T16:37:03.112Z,38.40
2019-04-26T16:39:10.430Z,38.60
2019-04-26T16:41:14.476Z,38.50
2019-04-26T16:43:34.849Z,38.80
2019-04-26T16:45:23.878Z,39.10
2019-04-26T16:47:28.240Z,39.50
2019-04-26T16:49:35.111Z,39.40
2019-04-26T16:51:37.589Z,40.10
2019-04-26T16:53:56.980Z,40.40
2019-04-26T16:55:52.171Z,39.90
2019-04-26T16:57:57.325Z,39.80
2019-04-26T17:00:00.221Z,40.20
2019-04-26T17:02:04.076Z,40.20
2019-04-26T17:04:11.163Z,40.40
2019-04-26T17:06:14.307Z,40.80
2019-04-26T17:08:19.272Z,40.90
2019-04-26T17:10:24.813Z,41.30
2019-04-26T17:12:29.071Z,41.60
2019-04-26T17:14:34.166Z,42.00
2019-04-26T17:16:38.382Z,42.20
2019-04-26T17:18:42.731Z,42.80
2019-04-26T17:20:48.167Z,42.80
2019-04-26T17:23:00.599Z,43.40
2019-04-26T17:25:09.872Z,43.70
2019-04-26T17:27:15.370Z,43.70
2019-04-26T17:29:19.239Z,44.10
2019-04-26T17:31:23.323Z,44.20
2019-04-26T17:33:28.231Z,44.40
2019-04-26T17:35:36.564Z,45.30
2019-04-26T17:37:42.208Z,44.70
2019-04-26T17:39:47.561Z,45.10
2019-04-26T17:41:54.124Z,45.50
2019-04-26T17:44:08.070Z,45.80
2019-04-26T17:46:02.950Z,46.00
2019-04-26T17:48:12.798Z,46.40
2019-04-26T17:50:12.912Z,46.90
2019-04-26T17:52:16.917Z,47.20
2019-04-26T17:54:40.774Z,47.60
2019-04-26T17:56:31.550Z,47.50
2019-04-26T17:58:34.329Z,47.40
2019-04-26T18:00:45.910Z,47.30
2019-04-26T18:02:48.009Z,47.60
2019-04-26T18:04:58.866Z,47.20
2019-04-26T18:07:03.025Z,47.20
2019-04-26T18:09:00.250Z,47.40
2019-04-26T18:11:04.365Z,47.90
2019-04-26T18:13:11.218Z,48.30
2019-04-26T18:15:18.833Z,48.40
2019-04-26T18:17:23.150Z,48.50
2019-04-26T18:19:33.388Z,49.10
2019-04-26T18:21:39.140Z,48.90
2019-04-26T18:23:44.665Z,49.20
2019-04-26T18:25:48.670Z,49.20
2019-04-26T18:27:53.537Z,49.10
2019-04-26T18:29:59.860Z,48.30
2019-04-26T18:32:03.729Z,48.90
2019-04-26T18:34:08.427Z,49.20
2019-04-26T18:36:13.090Z,49.40
2019-04-26T18:38:24.754Z,49.60
2019-04-26T18:40:28.619Z,49.90
2019-04-26T18:42:33.413Z,50.00
2019-04-26T18:44:43.333Z,50.00
2019-04-26T18:46:47.135Z,50.30
2019-04-26T18:48:50.716Z,50.60
2019-04-26T18:50:55.363Z,50.80
2019-04-26T18:53:13.944Z,50.60
2019-04-26T18:55:29.006Z,50.60
2019-04-26T18:57:30.375Z,50.80
2019-04-26T18:59:34.313Z,51.00
2019-04-26T19:01:40.802Z,51.20
2019-04-26T19:03:43.816Z,51.60
2019-04-26T19:05:47.874Z,51.70
2019-04-26T19:07:51.736Z,51.80
2019-04-26T19:09:59.262Z,51.60
2019-04-26T19:12:02.759Z,51.70
2019-04-26T19:14:13.066Z,51.30
2019-04-26T19:16:32.035Z,51.30
2019-04-26T19:18:37.943Z,51.00
2019-04-26T19:21:02.858Z,51.40
2019-04-26T19:23:08.195Z,51.60
2019-04-26T19:25:20.890Z,51.70
2019-04-26T19:27:22.324Z,52.60
2019-04-26T19:29:32.727Z,51.60
2019-04-26T19:31:28.947Z,52.50
2019-04-26T19:33:32.845Z,51.80
2019-04-26T19:35:39.330Z,52.00
2019-04-26T19:37:43.380Z,52.10
2019-04-26T19:39:47.462Z,52.20
2019-04-26T19:41:57.329Z,52.30
2019-04-26T19:43:57.218Z,53.30
2019-04-26T19:46:02.648Z,52.70
2019-04-26T19:48:20.400Z,53.10
2019-04-26T19:50:30.440Z,53.60
2019-04-26T19:52:39.470Z,53.60
2019-04-26T19:54:50.629Z,53.80
2019-04-26T19:57:08.330Z,54.00
2019-04-26T19:59:12.378Z,53.90
2019-04-26T20:01:16.465Z,54.10
2019-04-26T20:03:28.148Z,54.00
2019-04-26T20:05:32.116Z,54.10
2019-04-26T20:07:36.298Z,54.50
2019-04-26T20:09:41.893Z,54.50
2019-04-26T20:11:47.058Z,54.70
2019-04-26T20:13:55.156Z,55.10
2019-04-26T20:15:57.436Z,55.30
2019-04-26T20:18:03.909Z,55.70
2019-04-26T20:20:18.872Z,55.60
2019-04-26T20:22:13.664Z,55.70
2019-04-26T20:24:19.330Z,55.80
2019-04-26T20:26:23.317Z,55.90
2019-04-26T20:28:29.680Z,56.00
2019-04-26T20:30:40.084Z,56.00
2019-04-26T20:32:45.174Z,56.20
2019-04-26T20:34:50.639Z,56.00
2019-04-26T20:36:54.548Z,56.00
2019-04-26T20:38:58.471Z,56.10
2019-04-26T20:41:02.300Z,56.30
2019-04-26T20:43:07.034Z,56.40
2019-04-26T20:45:16.572Z,56.60
2019-04-26T20:47:17.935Z,56.50
2019-04-26T20:49:21.927Z,56.60
2019-04-26T20:51:26.059Z,56.60
2019-04-26T20:53:30.820Z,56.80
2019-04-26T20:55:35.602Z,56.70
2019-04-26T20:57:42.064Z,56.80
2019-04-26T20:59:45.261Z,56.80
2019-04-26T21:02:02.600Z,56.90
2019-04-26T21:03:54.771Z,57.10
2019-04-26T21:06:02.947Z,57.30
2019-04-26T21:08:07.608Z,58.10
2019-04-26T21:10:14.966Z,57.30
2019-04-26T21:12:21.939Z,57.40
2019-04-26T21:14:26.021Z,57.60
2019-04-26T21:16:29.899Z,57.80
2019-04-26T21:18:39.987Z,57.60
2019-04-26T21:20:39.836Z,57.80
2019-04-26T21:22:43.705Z,58.10
2019-04-26T21:24:50.745Z,58.70
2019-04-26T21:26:58.763Z,58.50
2019-04-26T21:29:20.431Z,58.20
2019-04-26T21:31:32.886Z,58.10
2019-04-26T21:33:39.035Z,58.20
2019-04-26T21:35:57.646Z,59.20
2019-04-26T21:38:04.262Z,58.80
2019-04-26T21:40:22.432Z,58.40
2019-04-26T21:42:25.525Z,58.70
2019-04-26T21:44:28.199Z,59.00
2019-04-26T21:46:33.503Z,59.10
2019-04-26T21:48:41.954Z,59.30
2019-04-26T21:50:44.581Z,59.50
2019-04-26T21:52:49.052Z,59.80
2019-04-26T21:54:56.303Z,59.90
2019-04-26T21:56:58.867Z,60.30
2019-04-26T21:59:03.761Z,60.40
2019-04-26T22:01:15.685Z,60.70
2019-04-26T22:03:19.080Z,61.00
2019-04-26T22:05:23.454Z,61.50
2019-04-26T22:07:27.686Z,61.90
2019-04-26T22:09:52.917Z,62.30
2019-04-26T22:11:57.338Z,62.40
2019-04-26T22:14:13.183Z,62.60
2019-04-26T22:16:31.935Z,62.80
2019-04-26T22:18:42.791Z,62.80
2019-04-26T22:21:00.712Z,63.30
2019-04-26T22:23:21.537Z,63.60
2019-04-26T22:25:27.147Z,64.10
2019-04-26T22:27:31.174Z,64.60
2019-04-26T22:29:35.419Z,64.70
2019-04-26T22:31:41.408Z,64.90
2019-04-26T22:33:45.505Z,65.20
2019-04-26T22:35:50.501Z,65.30
2019-04-26T22:37:55.219Z,66.00
2019-04-26T22:39:59.472Z,66.30
2019-04-26T22:42:03.962Z,67.00
2019-04-26T22:44:31.241Z,67.30
2019-04-26T22:46:47.283Z,67.60
2019-04-26T22:49:01.419Z,68.10
2019-04-26T22:51:04.394Z,68.30
2019-04-26T22:53:08.680Z,68.60
2019-04-26T22:55:17.645Z,68.70
2019-04-26T22:57:18.850Z,69.20
2019-04-26T22:59:25.211Z,69.40
2019-04-26T23:01:29.214Z,69.80
2019-04-26T23:03:36.613Z,70.10
2019-04-26T23:05:39.362Z,70.40
2019-04-26T23:07:43.258Z,70.80
2019-04-26T23:09:51.846Z,71.10
2019-04-26T23:11:54.524Z,71.30
2019-04-26T23:14:18.936Z,71.20
2019-04-26T23:16:40.413Z,71.30
2019-04-26T23:19:01.388Z,71.90
2019-04-26T23:21:11.986Z,72.50
2019-04-26T23:23:15.030Z,72.90
2019-04-26T23:25:18.909Z,73.10
2019-04-26T23:27:23.712Z,73.60
2019-04-26T23:29:27.755Z,74.20
2019-04-26T23:31:33.352Z,74.30
2019-04-26T23:33:37.340Z,74.00
2019-04-26T23:35:43.739Z,74.00
2019-04-26T23:37:46.826Z,74.30
2019-04-26T23:39:51.111Z,74.90
2019-04-26T23:41:55.096Z,75.30
2019-04-26T23:44:02.704Z,75.50
2019-04-26T23:46:04.730Z,75.40
2019-04-26T23:48:12.078Z,75.70
2019-04-26T23:50:14.185Z,75.90
2019-04-26T23:52:18.623Z,75.90
2019-04-26T23:54:23.869Z,76.20
2019-04-26T23:56:27.953Z,76.10
2019-04-26T23:58:31.823Z,76.40
